sensor_id;sensor_type;location;lat;lon;timestamp;temperature;humidity
4651;DHT22;2338;49.602;8.722;2023-05-10T00:02:31;15.00;99.90
4651;DHT22;2338;49.602;8.722;2023-05-10T00:05:17;15.00;99.90
4651;DHT22;2338;49.602;8.722;2023-05-10T00:08:04;14.90;99.90
4651;DHT22;2338;49.602;8.722;2023-05-10T00:10:49;15.00;99.90
4651;DHT22;2338;49.602;8.722;2023-05-10T00:13:35;15.00;99.90
4651;DHT22;2338;49.602;8.722;2023-05-10T00:16:20;15.00;99.90
4651;DHT22;2338;49.602;8.722;2023-05-10T00:19:06;15.10;99.90
4651;DHT22;2338;49.602;8.722;2023-05-10T00:21:51;15.10;99.90
4651;DHT22;2338;49.602;8.722;2023-05-10T00:24:39;15.10;99.90
4651;DHT22;2338;49.602;8.722;2023-05-10T00:27:24;15.20;99.90
4651;DHT22;2338;49.602;8.722;2023-05-10T00:30:10;15.10;99.90
4651;DHT22;2338;49.602;8.722;2023-05-10T00:32:55;15.10;99.90
4651;DHT22;2338;49.602;8.722;2023-05-10T00:35:41;15.20;99.90
4651;DHT22;2338;49.602;8.722;2023-05-10T00:38:26;15.20;99.90
4651;DHT22;2338;49.602;8.722;2023-05-10T00:41:13;15.20;99.90
4651;DHT22;2338;49.602;8.722;2023-05-10T00:43:59;15.20;99.90
4651;DHT22;2338;49.602;8.722;2023-05-10T00:46:46;15.20;99.90
4651;DHT22;2338;49.602;8.722;2023-05-10T00:49:31;15.20;99.90
4651;DHT22;2338;49.602;8.722;2023-05-10T00:52:17;15.10;99.90
4651;DHT22;2338;49.602;8.722;2023-05-10T00:55:03;15.00;99.90
4651;DHT22;2338;49.602;8.722;2023-05-10T00:57:52;15.10;99.90
4651;DHT22;2338;49.602;8.722;2023-05-10T01:00:41;15.10;99.90
4651;DHT22;2338;49.602;8.722;2023-05-10T01:03:28;15.00;99.90
4651;DHT22;2338;49.602;8.722;2023-05-10T01:06:13;15.00;99.90
4651;DHT22;2338;49.602;8.722;2023-05-10T01:08:58;14.90;99.90
4651;DHT22;2338;49.602;8.722;2023-05-10T01:11:44;14.90;99.90
4651;DHT22;2338;49.602;8.722;2023-05-10T01:14:31;14.80;99.90
4651;DHT22;2338;49.602;8.722;2023-05-10T01:17:16;14.90;99.90
4651;DHT22;2338;49.602;8.722;2023-05-10T01:20:03;14.90;99.90
4651;DHT22;2338;49.602;8.722;2023-05-10T01:23:16;14.80;99.90
4651;DHT22;2338;49.602;8.722;2023-05-10T01:26:33;14.70;99.90
4651;DHT22;2338;49.602;8.722;2023-05-10T01:32:45;14.70;99.90
4651;DHT22;2338;49.602;8.722;2023-05-10T01:35:38;14.80;99.90
4651;DHT22;2338;49.602;8.722;2023-05-10T01:38:32;14.80;99.90
4651;DHT22;2338;49.602;8.722;2023-05-10T01:41:28;14.80;99.90
4651;DHT22;2338;49.602;8.722;2023-05-10T01:44:20;14.90;99.90
4651;DHT22;2338;49.602;8.722;2023-05-10T01:47:11;14.90;99.90
4651;DHT22;2338;49.602;8.722;2023-05-10T01:50:02;14.90;99.90
4651;DHT22;2338;49.602;8.722;2023-05-10T01:52:51;14.90;99.90
4651;DHT22;2338;49.602;8.722;2023-05-10T01:55:43;15.00;99.90
4651;DHT22;2338;49.602;8.722;2023-05-10T01:58:32;14.90;99.90
4651;DHT22;2338;49.602;8.722;2023-05-10T02:01:20;14.90;99.90
4651;DHT22;2338;49.602;8.722;2023-05-10T02:04:07;14.70;99.90
4651;DHT22;2338;49.602;8.722;2023-05-10T02:06:55;14.70;99.90
4651;DHT22;2338;49.602;8.722;2023-05-10T02:09:44;14.80;99.90
4651;DHT22;2338;49.602;8.722;2023-05-10T02:12:32;14.80;99.90
4651;DHT22;2338;49.602;8.722;2023-05-10T02:15:22;14.70;99.90
4651;DHT22;2338;49.602;8.722;2023-05-10T02:18:09;14.80;99.90
4651;DHT22;2338;49.602;8.722;2023-05-10T02:20:56;14.70;99.90
4651;DHT22;2338;49.602;8.722;2023-05-10T02:23:45;14.80;99.90
4651;DHT22;2338;49.602;8.722;2023-05-10T02:26:31;14.80;99.90
4651;DHT22;2338;49.602;8.722;2023-05-10T02:29:18;14.80;99.90
4651;DHT22;2338;49.602;8.722;2023-05-10T02:32:04;14.90;99.90
4651;DHT22;2338;49.602;8.722;2023-05-10T02:34:51;14.80;99.90
4651;DHT22;2338;49.602;8.722;2023-05-10T02:37:38;14.70;99.90
4651;DHT22;2338;49.602;8.722;2023-05-10T02:40:26;14.50;99.90
4651;DHT22;2338;49.602;8.722;2023-05-10T02:43:14;14.50;99.90
4651;DHT22;2338;49.602;8.722;2023-05-10T02:46:01;14.50;99.90
4651;DHT22;2338;49.602;8.722;2023-05-10T02:48:46;14.40;99.90
4651;DHT22;2338;49.602;8.722;2023-05-10T02:51:35;14.40;99.90
4651;DHT22;2338;49.602;8.722;2023-05-10T02:54:25;14.50;99.90
4651;DHT22;2338;49.602;8.722;2023-05-10T02:57:16;14.40;99.90
4651;DHT22;2338;49.602;8.722;2023-05-10T03:00:04;14.50;99.90
4651;DHT22;2338;49.602;8.722;2023-05-10T03:02:49;14.60;99.90
4651;DHT22;2338;49.602;8.722;2023-05-10T03:05:35;14.50;99.90
4651;DHT22;2338;49.602;8.722;2023-05-10T03:08:21;14.60;99.90
4651;DHT22;2338;49.602;8.722;2023-05-10T03:11:22;14.60;99.90
4651;DHT22;2338;49.602;8.722;2023-05-10T03:14:21;14.60;99.90
4651;DHT22;2338;49.602;8.722;2023-05-10T03:17:11;14.50;99.90
4651;DHT22;2338;49.602;8.722;2023-05-10T03:20:04;14.60;99.90
4651;DHT22;2338;49.602;8.722;2023-05-10T03:22:55;14.60;99.90
4651;DHT22;2338;49.602;8.722;2023-05-10T03:25:41;14.60;99.90
4651;DHT22;2338;49.602;8.722;2023-05-10T03:28:27;14.60;99.90
4651;DHT22;2338;49.602;8.722;2023-05-10T03:31:14;14.60;99.90
4651;DHT22;2338;49.602;8.722;2023-05-10T03:34:00;14.70;99.90
4651;DHT22;2338;49.602;8.722;2023-05-10T03:36:45;14.70;99.90
4651;DHT22;2338;49.602;8.722;2023-05-10T03:39:31;14.70;99.90
4651;DHT22;2338;49.602;8.722;2023-05-10T03:42:16;14.70;99.90
4651;DHT22;2338;49.602;8.722;2023-05-10T03:45:02;14.60;99.90
4651;DHT22;2338;49.602;8.722;2023-05-10T03:47:49;14.60;99.90
4651;DHT22;2338;49.602;8.722;2023-05-10T03:50:34;14.60;99.90
4651;DHT22;2338;49.602;8.722;2023-05-10T03:53:20;14.70;99.90
4651;DHT22;2338;49.602;8.722;2023-05-10T03:56:05;14.70;99.90
4651;DHT22;2338;49.602;8.722;2023-05-10T03:58:50;14.70;99.90
4651;DHT22;2338;49.602;8.722;2023-05-10T04:01:36;14.70;99.90
4651;DHT22;2338;49.602;8.722;2023-05-10T04:04:23;14.70;99.90
4651;DHT22;2338;49.602;8.722;2023-05-10T04:07:08;14.70;99.90
4651;DHT22;2338;49.602;8.722;2023-05-10T04:09:54;14.70;99.90
4651;DHT22;2338;49.602;8.722;2023-05-10T04:12:39;14.60;99.90
4651;DHT22;2338;49.602;8.722;2023-05-10T04:15:25;14.50;99.90
4651;DHT22;2338;49.602;8.722;2023-05-10T04:18:10;14.60;99.90
4651;DHT22;2338;49.602;8.722;2023-05-10T04:20:57;14.50;99.90
4651;DHT22;2338;49.602;8.722;2023-05-10T04:23:42;14.50;99.90
4651;DHT22;2338;49.602;8.722;2023-05-10T04:26:28;14.40;99.90
4651;DHT22;2338;49.602;8.722;2023-05-10T04:29:13;14.50;99.90
4651;DHT22;2338;49.602;8.722;2023-05-10T04:31:59;14.50;99.90
4651;DHT22;2338;49.602;8.722;2023-05-10T04:34:44;14.50;99.90
4651;DHT22;2338;49.602;8.722;2023-05-10T04:37:31;14.50;99.90
4651;DHT22;2338;49.602;8.722;2023-05-10T04:40:17;14.50;99.90
4651;DHT22;2338;49.602;8.722;2023-05-10T04:43:02;14.50;99.90
4651;DHT22;2338;49.602;8.722;2023-05-10T04:45:48;14.40;99.90
4651;DHT22;2338;49.602;8.722;2023-05-10T04:48:34;14.40;99.90
4651;DHT22;2338;49.602;8.722;2023-05-10T04:51:19;14.50;99.90
4651;DHT22;2338;49.602;8.722;2023-05-10T04:54:06;14.50;99.90
4651;DHT22;2338;49.602;8.722;2023-05-10T04:56:51;14.50;99.90
4651;DHT22;2338;49.602;8.722;2023-05-10T04:59:37;14.50;99.90
4651;DHT22;2338;49.602;8.722;2023-05-10T05:02:22;14.50;99.90
4651;DHT22;2338;49.602;8.722;2023-05-10T05:05:08;14.50;99.90
4651;DHT22;2338;49.602;8.722;2023-05-10T05:07:53;14.50;99.90
4651;DHT22;2338;49.602;8.722;2023-05-10T05:10:40;14.40;99.90
4651;DHT22;2338;49.602;8.722;2023-05-10T05:13:26;14.40;99.90
4651;DHT22;2338;49.602;8.722;2023-05-10T05:16:11;14.40;99.90
4651;DHT22;2338;49.602;8.722;2023-05-10T05:18:57;14.30;99.90
4651;DHT22;2338;49.602;8.722;2023-05-10T05:21:42;14.20;99.90
4651;DHT22;2338;49.602;8.722;2023-05-10T05:24:28;14.20;99.90
4651;DHT22;2338;49.602;8.722;2023-05-10T05:27:15;14.30;99.90
4651;DHT22;2338;49.602;8.722;2023-05-10T05:30:00;14.40;99.90
4651;DHT22;2338;49.602;8.722;2023-05-10T05:32:46;14.40;99.90
4651;DHT22;2338;49.602;8.722;2023-05-10T05:35:31;14.40;99.90
4651;DHT22;2338;49.602;8.722;2023-05-10T05:38:17;14.40;99.90
4651;DHT22;2338;49.602;8.722;2023-05-10T05:41:02;14.50;99.90
4651;DHT22;2338;49.602;8.722;2023-05-10T05:43:49;14.50;99.90
4651;DHT22;2338;49.602;8.722;2023-05-10T05:46:35;14.50;99.90
4651;DHT22;2338;49.602;8.722;2023-05-10T05:49:20;14.50;99.90
4651;DHT22;2338;49.602;8.722;2023-05-10T05:52:06;14.60;99.90
4651;DHT22;2338;49.602;8.722;2023-05-10T05:54:51;14.50;99.90
4651;DHT22;2338;49.602;8.722;2023-05-10T05:57:37;14.50;99.90
4651;DHT22;2338;49.602;8.722;2023-05-10T06:00:24;14.60;99.90
4651;DHT22;2338;49.602;8.722;2023-05-10T06:03:10;14.60;99.90
4651;DHT22;2338;49.602;8.722;2023-05-10T06:05:55;14.60;99.90
4651;DHT22;2338;49.602;8.722;2023-05-10T06:08:41;14.70;99.90
4651;DHT22;2338;49.602;8.722;2023-05-10T06:11:26;14.70;99.90
4651;DHT22;2338;49.602;8.722;2023-05-10T06:14:12;14.80;99.90
4651;DHT22;2338;49.602;8.722;2023-05-10T06:16:59;14.80;99.90
4651;DHT22;2338;49.602;8.722;2023-05-10T06:19:44;14.80;99.90
4651;DHT22;2338;49.602;8.722;2023-05-10T06:22:30;14.80;99.90
4651;DHT22;2338;49.602;8.722;2023-05-10T06:25:15;14.80;99.90
4651;DHT22;2338;49.602;8.722;2023-05-10T06:28:02;14.80;99.90
4651;DHT22;2338;49.602;8.722;2023-05-10T06:30:47;14.70;99.90
4651;DHT22;2338;49.602;8.722;2023-05-10T06:33:34;14.70;99.90
4651;DHT22;2338;49.602;8.722;2023-05-10T06:36:20;14.70;99.90
4651;DHT22;2338;49.602;8.722;2023-05-10T06:39:05;14.80;99.90
4651;DHT22;2338;49.602;8.722;2023-05-10T06:41:51;14.90;99.90
4651;DHT22;2338;49.602;8.722;2023-05-10T06:44:37;15.00;99.90
4651;DHT22;2338;49.602;8.722;2023-05-10T06:47:22;15.00;99.90
4651;DHT22;2338;49.602;8.722;2023-05-10T06:50:10;15.10;99.90
4651;DHT22;2338;49.602;8.722;2023-05-10T06:52:56;15.10;99.90
4651;DHT22;2338;49.602;8.722;2023-05-10T06:55:41;15.10;99.90
4651;DHT22;2338;49.602;8.722;2023-05-10T06:58:27;15.20;99.90
4651;DHT22;2338;49.602;8.722;2023-05-10T07:01:13;15.30;99.90
4651;DHT22;2338;49.602;8.722;2023-05-10T07:03:58;15.30;99.90
4651;DHT22;2338;49.602;8.722;2023-05-10T07:06:45;15.30;99.90
4651;DHT22;2338;49.602;8.722;2023-05-10T07:09:30;15.30;99.90
4651;DHT22;2338;49.602;8.722;2023-05-10T07:12:16;15.40;99.90
4651;DHT22;2338;49.602;8.722;2023-05-10T07:15:02;15.30;99.90
4651;DHT22;2338;49.602;8.722;2023-05-10T07:17:47;15.30;99.90
4651;DHT22;2338;49.602;8.722;2023-05-10T07:20:32;15.30;99.90
4651;DHT22;2338;49.602;8.722;2023-05-10T07:23:19;15.30;99.90
4651;DHT22;2338;49.602;8.722;2023-05-10T07:26:05;15.30;99.90
4651;DHT22;2338;49.602;8.722;2023-05-10T07:28:50;15.30;99.90
4651;DHT22;2338;49.602;8.722;2023-05-10T07:31:36;15.20;99.90
4651;DHT22;2338;49.602;8.722;2023-05-10T07:34:22;15.20;99.90
4651;DHT22;2338;49.602;8.722;2023-05-10T07:37:07;15.10;99.90
4651;DHT22;2338;49.602;8.722;2023-05-10T07:39:54;15.20;99.90
4651;DHT22;2338;49.602;8.722;2023-05-10T07:42:39;15.30;99.90
4651;DHT22;2338;49.602;8.722;2023-05-10T07:45:25;15.40;99.90
4651;DHT22;2338;49.602;8.722;2023-05-10T07:48:11;15.50;99.90
4651;DHT22;2338;49.602;8.722;2023-05-10T07:50:56;15.60;99.90
4651;DHT22;2338;49.602;8.722;2023-05-10T07:53:41;15.60;99.90
4651;DHT22;2338;49.602;8.722;2023-05-10T07:56:29;15.70;99.90
4651;DHT22;2338;49.602;8.722;2023-05-10T07:59:16;15.90;99.90
4651;DHT22;2338;49.602;8.722;2023-05-10T08:02:02;16.00;99.90
4651;DHT22;2338;49.602;8.722;2023-05-10T08:04:47;15.90;99.90
4651;DHT22;2338;49.602;8.722;2023-05-10T08:07:33;16.00;99.90
4651;DHT22;2338;49.602;8.722;2023-05-10T08:10:19;16.10;99.90
4651;DHT22;2338;49.602;8.722;2023-05-10T08:13:05;16.10;99.90
4651;DHT22;2338;49.602;8.722;2023-05-10T08:15:51;16.10;99.90
4651;DHT22;2338;49.602;8.722;2023-05-10T08:18:37;16.20;99.90
4651;DHT22;2338;49.602;8.722;2023-05-10T08:21:23;16.20;99.90
4651;DHT22;2338;49.602;8.722;2023-05-10T08:24:08;16.30;99.90
4651;DHT22;2338;49.602;8.722;2023-05-10T08:26:54;16.30;99.90
4651;DHT22;2338;49.602;8.722;2023-05-10T08:29:41;16.20;99.90
4651;DHT22;2338;49.602;8.722;2023-05-10T08:32:26;16.20;99.90
4651;DHT22;2338;49.602;8.722;2023-05-10T08:35:12;16.30;99.90
4651;DHT22;2338;49.602;8.722;2023-05-10T08:37:57;16.30;99.90
4651;DHT22;2338;49.602;8.722;2023-05-10T08:40:44;16.20;99.90
4651;DHT22;2338;49.602;8.722;2023-05-10T08:43:30;16.20;99.90
4651;DHT22;2338;49.602;8.722;2023-05-10T08:46:19;16.20;99.90
4651;DHT22;2338;49.602;8.722;2023-05-10T08:49:06;16.30;99.90
4651;DHT22;2338;49.602;8.722;2023-05-10T08:51:54;16.40;99.90
4651;DHT22;2338;49.602;8.722;2023-05-10T08:54:40;16.50;99.90
4651;DHT22;2338;49.602;8.722;2023-05-10T08:57:26;16.50;99.90
4651;DHT22;2338;49.602;8.722;2023-05-10T09:00:13;16.50;99.90
4651;DHT22;2338;49.602;8.722;2023-05-10T09:03:01;16.70;99.90
4651;DHT22;2338;49.602;8.722;2023-05-10T09:05:47;16.70;99.90
4651;DHT22;2338;49.602;8.722;2023-05-10T09:08:33;16.80;99.90
4651;DHT22;2338;49.602;8.722;2023-05-10T09:11:20;16.80;99.90
4651;DHT22;2338;49.602;8.722;2023-05-10T09:14:05;16.90;99.90
4651;DHT22;2338;49.602;8.722;2023-05-10T09:16:51;16.90;99.90
4651;DHT22;2338;49.602;8.722;2023-05-10T09:19:39;17.10;99.90
4651;DHT22;2338;49.602;8.722;2023-05-10T09:22:24;17.20;99.90
4651;DHT22;2338;49.602;8.722;2023-05-10T09:25:11;17.20;99.90
4651;DHT22;2338;49.602;8.722;2023-05-10T09:27:57;17.20;99.90
4651;DHT22;2338;49.602;8.722;2023-05-10T09:30:43;17.20;99.90
4651;DHT22;2338;49.602;8.722;2023-05-10T09:33:28;17.10;99.90
4651;DHT22;2338;49.602;8.722;2023-05-10T09:36:15;17.00;99.90
4651;DHT22;2338;49.602;8.722;2023-05-10T09:39:02;16.80;99.90
4651;DHT22;2338;49.602;8.722;2023-05-10T09:41:47;16.60;99.90
4651;DHT22;2338;49.602;8.722;2023-05-10T09:44:34;16.50;99.90
4651;DHT22;2338;49.602;8.722;2023-05-10T09:47:19;16.30;99.90
4651;DHT22;2338;49.602;8.722;2023-05-10T09:50:05;16.20;99.90
4651;DHT22;2338;49.602;8.722;2023-05-10T09:52:54;16.10;99.90
4651;DHT22;2338;49.602;8.722;2023-05-10T09:55:43;16.00;99.90
4651;DHT22;2338;49.602;8.722;2023-05-10T09:58:29;15.90;99.90
4651;DHT22;2338;49.602;8.722;2023-05-10T10:01:14;15.90;99.90
4651;DHT22;2338;49.602;8.722;2023-05-10T10:04:02;15.90;99.90
4651;DHT22;2338;49.602;8.722;2023-05-10T10:06:58;15.90;99.90
4651;DHT22;2338;49.602;8.722;2023-05-10T10:09:45;15.90;99.90
4651;DHT22;2338;49.602;8.722;2023-05-10T10:12:31;16.00;99.90
4651;DHT22;2338;49.602;8.722;2023-05-10T10:15:16;16.00;99.90
4651;DHT22;2338;49.602;8.722;2023-05-10T10:18:02;16.20;99.90
4651;DHT22;2338;49.602;8.722;2023-05-10T10:20:48;16.30;99.90
4651;DHT22;2338;49.602;8.722;2023-05-10T10:23:34;16.50;99.90
4651;DHT22;2338;49.602;8.722;2023-05-10T10:26:22;16.70;99.90
4651;DHT22;2338;49.602;8.722;2023-05-10T10:29:16;16.80;99.90
4651;DHT22;2338;49.602;8.722;2023-05-10T10:32:10;16.80;99.90
4651;DHT22;2338;49.602;8.722;2023-05-10T10:34:57;16.80;99.90
4651;DHT22;2338;49.602;8.722;2023-05-10T10:37:44;16.60;99.90
4651;DHT22;2338;49.602;8.722;2023-05-10T10:40:31;16.30;99.90
4651;DHT22;2338;49.602;8.722;2023-05-10T10:43:25;16.00;99.90
4651;DHT22;2338;49.602;8.722;2023-05-10T10:46:12;15.90;99.90
4651;DHT22;2338;49.602;8.722;2023-05-10T10:49:09;15.70;99.90
4651;DHT22;2338;49.602;8.722;2023-05-10T10:52:14;15.60;99.90
4651;DHT22;2338;49.602;8.722;2023-05-10T10:55:01;15.50;99.90
4651;DHT22;2338;49.602;8.722;2023-05-10T10:57:48;15.50;99.90
4651;DHT22;2338;49.602;8.722;2023-05-10T11:00:37;15.50;99.90
4651;DHT22;2338;49.602;8.722;2023-05-10T11:03:24;15.50;99.90
4651;DHT22;2338;49.602;8.722;2023-05-10T11:06:10;15.70;99.90
4651;DHT22;2338;49.602;8.722;2023-05-10T11:08:55;15.80;99.90
4651;DHT22;2338;49.602;8.722;2023-05-10T11:11:52;16.00;99.90
4651;DHT22;2338;49.602;8.722;2023-05-10T11:14:39;16.30;99.90
4651;DHT22;2338;49.602;8.722;2023-05-10T11:17:27;16.40;99.90
4651;DHT22;2338;49.602;8.722;2023-05-10T11:20:14;16.50;99.90
4651;DHT22;2338;49.602;8.722;2023-05-10T11:23:11;16.60;99.90
4651;DHT22;2338;49.602;8.722;2023-05-10T11:25:59;16.60;99.90
4651;DHT22;2338;49.602;8.722;2023-05-10T11:28:46;16.60;99.90
4651;DHT22;2338;49.602;8.722;2023-05-10T11:31:32;16.60;99.90
4651;DHT22;2338;49.602;8.722;2023-05-10T11:34:26;16.70;99.90
4651;DHT22;2338;49.602;8.722;2023-05-10T11:37:12;16.80;99.90
4651;DHT22;2338;49.602;8.722;2023-05-10T11:39:57;16.90;99.90
4651;DHT22;2338;49.602;8.722;2023-05-10T11:42:43;17.20;99.90
4651;DHT22;2338;49.602;8.722;2023-05-10T11:45:28;17.30;99.90
4651;DHT22;2338;49.602;8.722;2023-05-10T11:48:15;17.50;99.90
4651;DHT22;2338;49.602;8.722;2023-05-10T11:51:08;17.70;99.90
4651;DHT22;2338;49.602;8.722;2023-05-10T11:53:55;17.70;99.90
4651;DHT22;2338;49.602;8.722;2023-05-10T11:56:41;17.60;99.90
4651;DHT22;2338;49.602;8.722;2023-05-10T11:59:27;17.60;99.90
4651;DHT22;2338;49.602;8.722;2023-05-10T12:02:13;17.50;99.90
4651;DHT22;2338;49.602;8.722;2023-05-10T12:04:59;17.20;99.90
4651;DHT22;2338;49.602;8.722;2023-05-10T12:07:46;17.10;99.90
4651;DHT22;2338;49.602;8.722;2023-05-10T12:10:34;16.80;99.90
4651;DHT22;2338;49.602;8.722;2023-05-10T12:13:20;16.70;99.90
4651;DHT22;2338;49.602;8.722;2023-05-10T12:16:16;16.70;99.90
4651;DHT22;2338;49.602;8.722;2023-05-10T12:19:02;16.40;99.90
4651;DHT22;2338;49.602;8.722;2023-05-10T12:21:48;16.30;99.90
4651;DHT22;2338;49.602;8.722;2023-05-10T12:24:36;16.40;99.90
4651;DHT22;2338;49.602;8.722;2023-05-10T12:27:22;16.50;99.90
4651;DHT22;2338;49.602;8.722;2023-05-10T12:30:08;16.80;99.90
4651;DHT22;2338;49.602;8.722;2023-05-10T12:32:58;17.10;99.90
4651;DHT22;2338;49.602;8.722;2023-05-10T12:35:45;17.30;99.90
4651;DHT22;2338;49.602;8.722;2023-05-10T12:38:33;17.60;99.90
4651;DHT22;2338;49.602;8.722;2023-05-10T12:41:20;17.70;99.90
4651;DHT22;2338;49.602;8.722;2023-05-10T12:44:06;17.70;99.90
4651;DHT22;2338;49.602;8.722;2023-05-10T12:46:51;17.80;99.90
4651;DHT22;2338;49.602;8.722;2023-05-10T12:49:37;17.80;99.90
4651;DHT22;2338;49.602;8.722;2023-05-10T12:52:23;18.00;99.90
4651;DHT22;2338;49.602;8.722;2023-05-10T12:55:08;18.10;99.90
4651;DHT22;2338;49.602;8.722;2023-05-10T12:57:54;18.20;99.90
4651;DHT22;2338;49.602;8.722;2023-05-10T13:00:40;17.90;99.90
4651;DHT22;2338;49.602;8.722;2023-05-10T13:03:25;17.70;99.90
4651;DHT22;2338;49.602;8.722;2023-05-10T13:06:11;17.60;99.90
4651;DHT22;2338;49.602;8.722;2023-05-10T13:08:57;17.40;99.90
4651;DHT22;2338;49.602;8.722;2023-05-10T13:11:43;17.30;99.90
4651;DHT22;2338;49.602;8.722;2023-05-10T13:14:30;17.20;99.90
4651;DHT22;2338;49.602;8.722;2023-05-10T13:17:16;17.20;99.90
4651;DHT22;2338;49.602;8.722;2023-05-10T13:20:01;17.30;99.90
4651;DHT22;2338;49.602;8.722;2023-05-10T13:22:47;17.60;99.90
4651;DHT22;2338;49.602;8.722;2023-05-10T13:25:33;17.80;99.90
4651;DHT22;2338;49.602;8.722;2023-05-10T13:28:18;18.00;99.90
4651;DHT22;2338;49.602;8.722;2023-05-10T13:31:05;18.20;99.90
4651;DHT22;2338;49.602;8.722;2023-05-10T13:33:50;18.30;99.90
4651;DHT22;2338;49.602;8.722;2023-05-10T13:36:36;18.40;99.90
4651;DHT22;2338;49.602;8.722;2023-05-10T13:39:21;18.30;99.90
4651;DHT22;2338;49.602;8.722;2023-05-10T13:42:07;18.00;99.90
4651;DHT22;2338;49.602;8.722;2023-05-10T13:44:53;17.90;99.90
4651;DHT22;2338;49.602;8.722;2023-05-10T13:47:39;17.90;99.90
4651;DHT22;2338;49.602;8.722;2023-05-10T13:50:25;17.90;99.90
4651;DHT22;2338;49.602;8.722;2023-05-10T13:53:11;17.80;99.90
4651;DHT22;2338;49.602;8.722;2023-05-10T13:55:56;17.90;99.90
4651;DHT22;2338;49.602;8.722;2023-05-10T13:58:42;17.80;99.90
4651;DHT22;2338;49.602;8.722;2023-05-10T14:01:27;17.80;99.90
4651;DHT22;2338;49.602;8.722;2023-05-10T14:04:14;17.90;99.90
4651;DHT22;2338;49.602;8.722;2023-05-10T14:07:00;18.00;99.90
4651;DHT22;2338;49.602;8.722;2023-05-10T14:09:45;18.20;99.90
4651;DHT22;2338;49.602;8.722;2023-05-10T14:12:31;18.40;99.90
4651;DHT22;2338;49.602;8.722;2023-05-10T14:15:16;18.30;99.90
4651;DHT22;2338;49.602;8.722;2023-05-10T14:18:02;18.20;99.90
4651;DHT22;2338;49.602;8.722;2023-05-10T14:20:49;18.30;99.90
4651;DHT22;2338;49.602;8.722;2023-05-10T14:23:34;18.30;99.90
4651;DHT22;2338;49.602;8.722;2023-05-10T14:26:20;18.30;99.90
4651;DHT22;2338;49.602;8.722;2023-05-10T14:29:05;18.10;99.90
4651;DHT22;2338;49.602;8.722;2023-05-10T14:31:51;18.00;99.90
4651;DHT22;2338;49.602;8.722;2023-05-10T14:34:36;18.10;99.90
4651;DHT22;2338;49.602;8.722;2023-05-10T14:37:23;18.10;99.90
4651;DHT22;2338;49.602;8.722;2023-05-10T14:40:09;18.20;99.90
4651;DHT22;2338;49.602;8.722;2023-05-10T14:42:55;18.30;99.90
4651;DHT22;2338;49.602;8.722;2023-05-10T14:45:40;18.30;99.90
4651;DHT22;2338;49.602;8.722;2023-05-10T14:48:26;18.30;99.90
4651;DHT22;2338;49.602;8.722;2023-05-10T14:51:11;18.30;99.90
4651;DHT22;2338;49.602;8.722;2023-05-10T14:53:58;18.30;99.90
4651;DHT22;2338;49.602;8.722;2023-05-10T14:56:43;18.40;99.90
4651;DHT22;2338;49.602;8.722;2023-05-10T14:59:29;18.40;99.90
4651;DHT22;2338;49.602;8.722;2023-05-10T15:02:15;18.50;99.90
4651;DHT22;2338;49.602;8.722;2023-05-10T15:05:00;18.50;99.90
4651;DHT22;2338;49.602;8.722;2023-05-10T15:07:46;18.60;99.90
4651;DHT22;2338;49.602;8.722;2023-05-10T15:10:33;18.50;99.10
4651;DHT22;2338;49.602;8.722;2023-05-10T15:13:19;18.40;97.90
4651;DHT22;2338;49.602;8.722;2023-05-10T15:16:04;18.30;92.70
4651;DHT22;2338;49.602;8.722;2023-05-10T15:18:50;18.30;88.80
4651;DHT22;2338;49.602;8.722;2023-05-10T15:21:35;18.30;87.50
4651;DHT22;2338;49.602;8.722;2023-05-10T15:24:22;18.00;86.50
4651;DHT22;2338;49.602;8.722;2023-05-10T15:27:09;18.00;85.10
4651;DHT22;2338;49.602;8.722;2023-05-10T15:29:55;18.00;86.80
4651;DHT22;2338;49.602;8.722;2023-05-10T15:32:40;18.10;95.20
4651;DHT22;2338;49.602;8.722;2023-05-10T15:35:26;18.10;90.40
4651;DHT22;2338;49.602;8.722;2023-05-10T15:38:12;18.10;87.90
4651;DHT22;2338;49.602;8.722;2023-05-10T15:40:57;18.00;89.60
4651;DHT22;2338;49.602;8.722;2023-05-10T15:43:44;18.10;84.60
4651;DHT22;2338;49.602;8.722;2023-05-10T15:46:30;18.00;87.70
4651;DHT22;2338;49.602;8.722;2023-05-10T15:49:15;17.90;77.60
4651;DHT22;2338;49.602;8.722;2023-05-10T15:52:01;18.00;89.20
4651;DHT22;2338;49.602;8.722;2023-05-10T15:54:46;18.00;94.60
4651;DHT22;2338;49.602;8.722;2023-05-10T15:57:32;18.00;90.50
4651;DHT22;2338;49.602;8.722;2023-05-10T16:00:19;18.10;92.70
4651;DHT22;2338;49.602;8.722;2023-05-10T16:03:04;18.00;76.80
4651;DHT22;2338;49.602;8.722;2023-05-10T16:05:50;18.10;83.00
4651;DHT22;2338;49.602;8.722;2023-05-10T16:08:37;18.20;89.90
4651;DHT22;2338;49.602;8.722;2023-05-10T16:11:22;18.30;77.60
4651;DHT22;2338;49.602;8.722;2023-05-10T16:14:08;18.40;76.70
4651;DHT22;2338;49.602;8.722;2023-05-10T16:16:55;18.50;74.90
4651;DHT22;2338;49.602;8.722;2023-05-10T16:19:40;18.60;76.70
4651;DHT22;2338;49.602;8.722;2023-05-10T16:22:26;18.60;80.30
4651;DHT22;2338;49.602;8.722;2023-05-10T16:25:12;18.60;74.00
4651;DHT22;2338;49.602;8.722;2023-05-10T16:27:58;18.50;78.60
4651;DHT22;2338;49.602;8.722;2023-05-10T16:30:43;18.50;72.20
4651;DHT22;2338;49.602;8.722;2023-05-10T16:33:31;18.60;78.50
4651;DHT22;2338;49.602;8.722;2023-05-10T16:36:17;18.40;85.80
4651;DHT22;2338;49.602;8.722;2023-05-10T16:39:03;18.40;71.80
4651;DHT22;2338;49.602;8.722;2023-05-10T16:41:48;18.30;74.10
4651;DHT22;2338;49.602;8.722;2023-05-10T16:44:33;18.30;79.40
4651;DHT22;2338;49.602;8.722;2023-05-10T16:47:19;18.40;83.60
4651;DHT22;2338;49.602;8.722;2023-05-10T16:50:07;18.40;77.70
4651;DHT22;2338;49.602;8.722;2023-05-10T16:52:52;18.20;76.20
4651;DHT22;2338;49.602;8.722;2023-05-10T16:55:38;18.00;70.20
4651;DHT22;2338;49.602;8.722;2023-05-10T16:58:23;18.00;71.30
4651;DHT22;2338;49.602;8.722;2023-05-10T17:01:09;18.00;77.10
4651;DHT22;2338;49.602;8.722;2023-05-10T17:03:54;18.00;90.00
4651;DHT22;2338;49.602;8.722;2023-05-10T17:06:42;17.90;91.00
4651;DHT22;2338;49.602;8.722;2023-05-10T17:09:27;17.90;92.00
4651;DHT22;2338;49.602;8.722;2023-05-10T17:12:13;17.90;81.50
4651;DHT22;2338;49.602;8.722;2023-05-10T17:14:58;17.90;90.50
4651;DHT22;2338;49.602;8.722;2023-05-10T17:17:44;17.90;96.30
4651;DHT22;2338;49.602;8.722;2023-05-10T17:20:30;17.80;98.90
4651;DHT22;2338;49.602;8.722;2023-05-10T17:23:16;17.80;99.90
4651;DHT22;2338;49.602;8.722;2023-05-10T17:26:03;17.80;99.90
4651;DHT22;2338;49.602;8.722;2023-05-10T17:28:48;17.70;99.90
4651;DHT22;2338;49.602;8.722;2023-05-10T17:31:34;17.70;99.90
4651;DHT22;2338;49.602;8.722;2023-05-10T17:34:20;17.60;99.90
4651;DHT22;2338;49.602;8.722;2023-05-10T17:37:07;17.50;99.90
4651;DHT22;2338;49.602;8.722;2023-05-10T17:39:54;17.50;99.90
4651;DHT22;2338;49.602;8.722;2023-05-10T17:42:40;17.30;99.90
4651;DHT22;2338;49.602;8.722;2023-05-10T17:45:25;17.30;99.90
4651;DHT22;2338;49.602;8.722;2023-05-10T17:48:11;17.20;99.90
4651;DHT22;2338;49.602;8.722;2023-05-10T17:50:57;17.10;99.90
4651;DHT22;2338;49.602;8.722;2023-05-10T17:53:42;17.00;99.90
4651;DHT22;2338;49.602;8.722;2023-05-10T17:56:29;17.00;99.90
4651;DHT22;2338;49.602;8.722;2023-05-10T17:59:15;16.90;99.90
4651;DHT22;2338;49.602;8.722;2023-05-10T18:02:01;16.70;99.90
4651;DHT22;2338;49.602;8.722;2023-05-10T18:04:46;16.70;99.90
4651;DHT22;2338;49.602;8.722;2023-05-10T18:07:32;16.60;99.90
4651;DHT22;2338;49.602;8.722;2023-05-10T18:10:18;16.60;99.90
4651;DHT22;2338;49.602;8.722;2023-05-10T18:13:05;16.40;99.90